sensor_id;sensor_type;location;lat;lon;timestamp;P1;durP1;ratioP1;P2;durP2;ratioP2
4359;SDS011;2193;47.980;7.660;2022-10-31T00:01:54;12.80;;;8.07;;
4359;SDS011;2193;47.980;7.660;2022-10-31T00:04:19;16.20;;;7.00;;
4359;SDS011;2193;47.980;7.660;2022-10-31T00:06:44;20.83;;;8.23;;
4359;SDS011;2193;47.980;7.660;2022-10-31T00:09:09;15.33;;;8.10;;
4359;SDS011;2193;47.980;7.660;2022-10-31T00:11:35;15.63;;;7.60;;
4359;SDS011;2193;47.980;7.660;2022-10-31T00:14:00;9.80;;;7.10;;
4359;SDS011;2193;47.980;7.660;2022-10-31T00:16:26;14.23;;;7.97;;
4359;SDS011;2193;47.980;7.660;2022-10-31T00:18:52;11.50;;;7.00;;
4359;SDS011;2193;47.980;7.660;2022-10-31T00:21:18;13.60;;;7.50;;
4359;SDS011;2193;47.980;7.660;2022-10-31T00:23:44;14.37;;;7.07;;
4359;SDS011;2193;47.980;7.660;2022-10-31T00:26:09;20.17;;;7.37;;
4359;SDS011;2193;47.980;7.660;2022-10-31T00:28:34;11.33;;;7.60;;
4359;SDS011;2193;47.980;7.660;2022-10-31T00:31:03;10.13;;;6.67;;
4359;SDS011;2193;47.980;7.660;2022-10-31T00:33:29;12.33;;;7.03;;
4359;SDS011;2193;47.980;7.660;2022-10-31T00:35:54;12.03;;;7.00;;
4359;SDS011;2193;47.980;7.660;2022-10-31T00:38:20;14.23;;;7.13;;
4359;SDS011;2193;47.980;7.660;2022-10-31T00:40:45;16.30;;;7.37;;
4359;SDS011;2193;47.980;7.660;2022-10-31T00:43:10;15.53;;;7.40;;
4359;SDS011;2193;47.980;7.660;2022-10-31T00:45:36;15.83;;;6.60;;
4359;SDS011;2193;47.980;7.660;2022-10-31T00:48:01;14.43;;;7.37;;
4359;SDS011;2193;47.980;7.660;2022-10-31T00:50:26;12.00;;;7.13;;
4359;SDS011;2193;47.980;7.660;2022-10-31T00:52:51;14.00;;;6.97;;
4359;SDS011;2193;47.980;7.660;2022-10-31T00:55:16;11.73;;;7.40;;
4359;SDS011;2193;47.980;7.660;2022-10-31T00:57:42;12.33;;;7.50;;
4359;SDS011;2193;47.980;7.660;2022-10-31T01:00:07;15.93;;;7.63;;
4359;SDS011;2193;47.980;7.660;2022-10-31T01:02:32;16.03;;;6.83;;
4359;SDS011;2193;47.980;7.660;2022-10-31T01:04:57;15.27;;;7.77;;
4359;SDS011;2193;47.980;7.660;2022-10-31T01:07:23;15.60;;;7.30;;
4359;SDS011;2193;47.980;7.660;2022-10-31T01:09:48;11.77;;;7.27;;
4359;SDS011;2193;47.980;7.660;2022-10-31T01:12:13;15.00;;;7.10;;
4359;SDS011;2193;47.980;7.660;2022-10-31T01:14:42;11.97;;;6.63;;
4359;SDS011;2193;47.980;7.660;2022-10-31T01:17:07;16.37;;;7.33;;
4359;SDS011;2193;47.980;7.660;2022-10-31T01:19:32;13.80;;;6.87;;
4359;SDS011;2193;47.980;7.660;2022-10-31T01:21:57;11.07;;;6.40;;
4359;SDS011;2193;47.980;7.660;2022-10-31T01:24:23;10.73;;;7.03;;
4359;SDS011;2193;47.980;7.660;2022-10-31T01:26:48;11.17;;;6.50;;
4359;SDS011;2193;47.980;7.660;2022-10-31T01:29:13;20.10;;;7.10;;
4359;SDS011;2193;47.980;7.660;2022-10-31T01:31:38;11.50;;;6.43;;
4359;SDS011;2193;47.980;7.660;2022-10-31T01:34:04;12.70;;;7.00;;
4359;SDS011;2193;47.980;7.660;2022-10-31T01:36:33;17.13;;;6.97;;
4359;SDS011;2193;47.980;7.660;2022-10-31T01:39:00;13.87;;;7.17;;
4359;SDS011;2193;47.980;7.660;2022-10-31T01:41:28;13.40;;;6.30;;
4359;SDS011;2193;47.980;7.660;2022-10-31T01:43:57;18.33;;;7.60;;
4359;SDS011;2193;47.980;7.660;2022-10-31T01:48:48;14.17;;;6.97;;
4359;SDS011;2193;47.980;7.660;2022-10-31T01:51:14;13.53;;;7.63;;
4359;SDS011;2193;47.980;7.660;2022-10-31T01:53:40;14.57;;;7.70;;
4359;SDS011;2193;47.980;7.660;2022-10-31T01:56:06;12.17;;;6.80;;
4359;SDS011;2193;47.980;7.660;2022-10-31T01:58:32;10.93;;;6.30;;
4359;SDS011;2193;47.980;7.660;2022-10-31T02:00:58;12.83;;;6.43;;
4359;SDS011;2193;47.980;7.660;2022-10-31T02:03:24;10.40;;;6.70;;
4359;SDS011;2193;47.980;7.660;2022-10-31T02:05:50;11.60;;;6.97;;
4359;SDS011;2193;47.980;7.660;2022-10-31T02:08:26;10.93;;;5.90;;
4359;SDS011;2193;47.980;7.660;2022-10-31T02:10:51;11.17;;;6.60;;
4359;SDS011;2193;47.980;7.660;2022-10-31T02:13:17;12.10;;;5.83;;
4359;SDS011;2193;47.980;7.660;2022-10-31T02:15:44;9.37;;;5.50;;
4359;SDS011;2193;47.980;7.660;2022-10-31T02:18:10;10.67;;;6.00;;
4359;SDS011;2193;47.980;7.660;2022-10-31T02:20:47;14.87;;;6.13;;
4359;SDS011;2193;47.980;7.660;2022-10-31T02:40:52;14.07;;;6.30;;
4359;SDS011;2193;47.980;7.660;2022-10-31T02:43:40;14.50;;;6.80;;
4359;SDS011;2193;47.980;7.660;2022-10-31T02:46:23;10.60;;;6.30;;
4359;SDS011;2193;47.980;7.660;2022-10-31T02:48:50;13.30;;;5.73;;
4359;SDS011;2193;47.980;7.660;2022-10-31T02:51:18;15.53;;;6.30;;
4359;SDS011;2193;47.980;7.660;2022-10-31T02:53:43;14.40;;;7.03;;
4359;SDS011;2193;47.980;7.660;2022-10-31T02:56:11;13.03;;;6.27;;
4359;SDS011;2193;47.980;7.660;2022-10-31T02:58:38;15.10;;;6.70;;
4359;SDS011;2193;47.980;7.660;2022-10-31T03:03:49;9.40;;;6.33;;
4359;SDS011;2193;47.980;7.660;2022-10-31T03:11:31;19.20;;;6.90;;
4359;SDS011;2193;47.980;7.660;2022-10-31T03:13:59;10.67;;;6.10;;
4359;SDS011;2193;47.980;7.660;2022-10-31T03:16:32;17.03;;;6.10;;
4359;SDS011;2193;47.980;7.660;2022-10-31T03:21:26;9.80;;;6.10;;
4359;SDS011;2193;47.980;7.660;2022-10-31T03:23:52;11.40;;;5.77;;
4359;SDS011;2193;47.980;7.660;2022-10-31T03:26:18;16.87;;;6.77;;
4359;SDS011;2193;47.980;7.660;2022-10-31T03:28:46;11.17;;;5.80;;
4359;SDS011;2193;47.980;7.660;2022-10-31T03:31:12;12.67;;;5.77;;
4359;SDS011;2193;47.980;7.660;2022-10-31T03:33:40;10.67;;;5.87;;
4359;SDS011;2193;47.980;7.660;2022-10-31T03:36:07;11.70;;;6.40;;
4359;SDS011;2193;47.980;7.660;2022-10-31T03:38:33;13.90;;;6.00;;
4359;SDS011;2193;47.980;7.660;2022-10-31T03:41:00;20.87;;;6.77;;
4359;SDS011;2193;47.980;7.660;2022-10-31T03:43:28;14.80;;;6.57;;
4359;SDS011;2193;47.980;7.660;2022-10-31T03:45:54;13.73;;;5.80;;
4359;SDS011;2193;47.980;7.660;2022-10-31T03:48:19;11.03;;;5.13;;
4359;SDS011;2193;47.980;7.660;2022-10-31T03:53:19;17.60;;;5.80;;
4359;SDS011;2193;47.980;7.660;2022-10-31T03:55:49;12.03;;;5.63;;
4359;SDS011;2193;47.980;7.660;2022-10-31T03:58:19;14.23;;;6.10;;
4359;SDS011;2193;47.980;7.660;2022-10-31T04:00:45;9.13;;;5.30;;
4359;SDS011;2193;47.980;7.660;2022-10-31T04:03:11;8.77;;;5.43;;
4359;SDS011;2193;47.980;7.660;2022-10-31T04:05:37;13.73;;;5.60;;
4359;SDS011;2193;47.980;7.660;2022-10-31T04:08:04;17.30;;;5.40;;
4359;SDS011;2193;47.980;7.660;2022-10-31T04:10:32;9.10;;;5.13;;
4359;SDS011;2193;47.980;7.660;2022-10-31T04:12:59;14.80;;;5.13;;
4359;SDS011;2193;47.980;7.660;2022-10-31T04:15:25;9.87;;;5.00;;
4359;SDS011;2193;47.980;7.660;2022-10-31T04:17:52;8.80;;;5.50;;
4359;SDS011;2193;47.980;7.660;2022-10-31T04:20:18;10.03;;;5.13;;
4359;SDS011;2193;47.980;7.660;2022-10-31T04:22:53;10.17;;;5.03;;
4359;SDS011;2193;47.980;7.660;2022-10-31T04:25:19;12.33;;;5.87;;
4359;SDS011;2193;47.980;7.660;2022-10-31T04:27:44;8.70;;;5.27;;
4359;SDS011;2193;47.980;7.660;2022-10-31T04:30:09;10.07;;;5.20;;
4359;SDS011;2193;47.980;7.660;2022-10-31T04:32:34;10.70;;;5.30;;
4359;SDS011;2193;47.980;7.660;2022-10-31T04:34:59;13.80;;;5.53;;
4359;SDS011;2193;47.980;7.660;2022-10-31T04:37:25;13.50;;;5.87;;
4359;SDS011;2193;47.980;7.660;2022-10-31T04:39:50;11.73;;;5.17;;
4359;SDS011;2193;47.980;7.660;2022-10-31T04:42:15;10.40;;;5.60;;
4359;SDS011;2193;47.980;7.660;2022-10-31T04:44:40;9.90;;;5.60;;
4359;SDS011;2193;47.980;7.660;2022-10-31T04:47:05;13.23;;;5.87;;
4359;SDS011;2193;47.980;7.660;2022-10-31T04:49:30;7.17;;;4.67;;
4359;SDS011;2193;47.980;7.660;2022-10-31T04:51:56;8.20;;;5.50;;
4359;SDS011;2193;47.980;7.660;2022-10-31T04:54:21;7.97;;;5.50;;
4359;SDS011;2193;47.980;7.660;2022-10-31T04:56:46;10.90;;;5.03;;
4359;SDS011;2193;47.980;7.660;2022-10-31T04:59:11;13.47;;;5.37;;
4359;SDS011;2193;47.980;7.660;2022-10-31T05:01:36;10.07;;;5.30;;
4359;SDS011;2193;47.980;7.660;2022-10-31T05:04:02;15.50;;;5.67;;
4359;SDS011;2193;47.980;7.660;2022-10-31T05:06:27;9.70;;;5.30;;
4359;SDS011;2193;47.980;7.660;2022-10-31T05:08:52;8.17;;;5.40;;
4359;SDS011;2193;47.980;7.660;2022-10-31T05:11:17;11.47;;;5.80;;
4359;SDS011;2193;47.980;7.660;2022-10-31T05:13:43;8.70;;;5.43;;
4359;SDS011;2193;47.980;7.660;2022-10-31T05:16:08;13.70;;;6.07;;
4359;SDS011;2193;47.980;7.660;2022-10-31T05:18:33;12.83;;;7.03;;
4359;SDS011;2193;47.980;7.660;2022-10-31T05:20:58;11.20;;;5.83;;
4359;SDS011;2193;47.980;7.660;2022-10-31T05:23:23;11.03;;;5.70;;
4359;SDS011;2193;47.980;7.660;2022-10-31T05:25:48;17.00;;;7.03;;
4359;SDS011;2193;47.980;7.660;2022-10-31T05:28:14;10.87;;;6.00;;
4359;SDS011;2193;47.980;7.660;2022-10-31T05:30:39;13.07;;;6.27;;
4359;SDS011;2193;47.980;7.660;2022-10-31T05:33:05;12.30;;;5.73;;
4359;SDS011;2193;47.980;7.660;2022-10-31T05:35:30;13.30;;;6.70;;
4359;SDS011;2193;47.980;7.660;2022-10-31T05:37:56;12.53;;;6.50;;
4359;SDS011;2193;47.980;7.660;2022-10-31T05:40:22;13.53;;;6.63;;
4359;SDS011;2193;47.980;7.660;2022-10-31T05:42:50;12.10;;;7.30;;
4359;SDS011;2193;47.980;7.660;2022-10-31T05:45:16;14.60;;;5.73;;
4359;SDS011;2193;47.980;7.660;2022-10-31T05:47:41;10.63;;;5.33;;
4359;SDS011;2193;47.980;7.660;2022-10-31T05:50:07;8.20;;;5.57;;
4359;SDS011;2193;47.980;7.660;2022-10-31T05:52:33;8.40;;;5.87;;
4359;SDS011;2193;47.980;7.660;2022-10-31T05:54:58;12.73;;;5.20;;
4359;SDS011;2193;47.980;7.660;2022-10-31T05:57:23;8.50;;;4.47;;
4359;SDS011;2193;47.980;7.660;2022-10-31T05:59:49;17.67;;;6.17;;
4359;SDS011;2193;47.980;7.660;2022-10-31T06:02:17;9.00;;;5.30;;
4359;SDS011;2193;47.980;7.660;2022-10-31T06:04:42;9.47;;;5.90;;
4359;SDS011;2193;47.980;7.660;2022-10-31T06:07:08;14.97;;;7.03;;
4359;SDS011;2193;47.980;7.660;2022-10-31T06:09:33;17.53;;;6.87;;
4359;SDS011;2193;47.980;7.660;2022-10-31T06:11:58;16.83;;;7.60;;
4359;SDS011;2193;47.980;7.660;2022-10-31T06:14:23;17.80;;;8.03;;
4359;SDS011;2193;47.980;7.660;2022-10-31T06:16:48;25.10;;;8.20;;
4359;SDS011;2193;47.980;7.660;2022-10-31T06:19:14;12.87;;;6.70;;
4359;SDS011;2193;47.980;7.660;2022-10-31T06:21:39;14.10;;;6.40;;
4359;SDS011;2193;47.980;7.660;2022-10-31T06:24:04;10.30;;;6.13;;
4359;SDS011;2193;47.980;7.660;2022-10-31T06:26:29;12.40;;;5.43;;
4359;SDS011;2193;47.980;7.660;2022-10-31T06:28:55;11.43;;;6.10;;
4359;SDS011;2193;47.980;7.660;2022-10-31T06:31:20;8.47;;;5.97;;
4359;SDS011;2193;47.980;7.660;2022-10-31T06:33:45;10.47;;;5.93;;
4359;SDS011;2193;47.980;7.660;2022-10-31T06:36:10;9.47;;;6.03;;
4359;SDS011;2193;47.980;7.660;2022-10-31T06:38:36;10.07;;;6.53;;
4359;SDS011;2193;47.980;7.660;2022-10-31T06:41:02;10.03;;;5.30;;
4359;SDS011;2193;47.980;7.660;2022-10-31T06:43:27;8.00;;;4.83;;
4359;SDS011;2193;47.980;7.660;2022-10-31T06:45:53;8.90;;;6.10;;
4359;SDS011;2193;47.980;7.660;2022-10-31T06:48:18;10.37;;;5.30;;
4359;SDS011;2193;47.980;7.660;2022-10-31T06:50:43;7.90;;;5.37;;
4359;SDS011;2193;47.980;7.660;2022-10-31T06:53:09;14.60;;;5.73;;
4359;SDS011;2193;47.980;7.660;2022-10-31T06:55:34;11.60;;;5.63;;
4359;SDS011;2193;47.980;7.660;2022-10-31T06:58:00;6.83;;;4.70;;
4359;SDS011;2193;47.980;7.660;2022-10-31T07:00:27;8.60;;;4.50;;
4359;SDS011;2193;47.980;7.660;2022-10-31T07:02:56;9.87;;;5.33;;
4359;SDS011;2193;47.980;7.660;2022-10-31T07:05:22;12.10;;;5.07;;
4359;SDS011;2193;47.980;7.660;2022-10-31T07:07:47;11.77;;;5.10;;
4359;SDS011;2193;47.980;7.660;2022-10-31T07:10:16;9.43;;;5.57;;
4359;SDS011;2193;47.980;7.660;2022-10-31T07:12:41;10.67;;;6.03;;
4359;SDS011;2193;47.980;7.660;2022-10-31T07:15:06;18.00;;;7.20;;
4359;SDS011;2193;47.980;7.660;2022-10-31T07:17:32;11.00;;;5.67;;
4359;SDS011;2193;47.980;7.660;2022-10-31T07:19:57;30.30;;;7.20;;
4359;SDS011;2193;47.980;7.660;2022-10-31T07:22:22;23.83;;;7.77;;
4359;SDS011;2193;47.980;7.660;2022-10-31T07:24:47;14.57;;;6.37;;
4359;SDS011;2193;47.980;7.660;2022-10-31T07:27:12;36.50;;;7.67;;
4359;SDS011;2193;47.980;7.660;2022-10-31T07:29:38;34.73;;;8.00;;
4359;SDS011;2193;47.980;7.660;2022-10-31T07:32:03;18.47;;;7.20;;
4359;SDS011;2193;47.980;7.660;2022-10-31T07:34:28;23.40;;;8.40;;
4359;SDS011;2193;47.980;7.660;2022-10-31T07:36:53;15.73;;;7.93;;
4359;SDS011;2193;47.980;7.660;2022-10-31T07:39:19;24.13;;;8.77;;
4359;SDS011;2193;47.980;7.660;2022-10-31T07:41:44;23.77;;;8.93;;
4359;SDS011;2193;47.980;7.660;2022-10-31T07:44:09;36.30;;;8.60;;
4359;SDS011;2193;47.980;7.660;2022-10-31T07:46:34;24.60;;;8.20;;
4359;SDS011;2193;47.980;7.660;2022-10-31T07:49:00;27.00;;;10.27;;
4359;SDS011;2193;47.980;7.660;2022-10-31T07:51:25;28.57;;;9.47;;
4359;SDS011;2193;47.980;7.660;2022-10-31T07:53:51;24.40;;;8.50;;
4359;SDS011;2193;47.980;7.660;2022-10-31T07:56:16;24.90;;;9.30;;
4359;SDS011;2193;47.980;7.660;2022-10-31T07:58:41;20.43;;;8.17;;
4359;SDS011;2193;47.980;7.660;2022-10-31T08:01:07;18.67;;;9.00;;
4359;SDS011;2193;47.980;7.660;2022-10-31T08:03:32;28.73;;;9.73;;
4359;SDS011;2193;47.980;7.660;2022-10-31T08:05:57;32.90;;;11.03;;
4359;SDS011;2193;47.980;7.660;2022-10-31T08:08:22;14.10;;;8.13;;
4359;SDS011;2193;47.980;7.660;2022-10-31T08:10:49;18.37;;;8.40;;
4359;SDS011;2193;47.980;7.660;2022-10-31T08:13:14;22.57;;;10.10;;
4359;SDS011;2193;47.980;7.660;2022-10-31T08:15:39;22.73;;;11.13;;
4359;SDS011;2193;47.980;7.660;2022-10-31T08:18:06;22.87;;;10.80;;
4359;SDS011;2193;47.980;7.660;2022-10-31T08:20:35;29.50;;;10.90;;
4359;SDS011;2193;47.980;7.660;2022-10-31T08:23:02;20.17;;;11.53;;
4359;SDS011;2193;47.980;7.660;2022-10-31T08:25:28;22.40;;;10.90;;
4359;SDS011;2193;47.980;7.660;2022-10-31T08:27:54;18.53;;;11.00;;
4359;SDS011;2193;47.980;7.660;2022-10-31T08:30:20;27.00;;;12.03;;
4359;SDS011;2193;47.980;7.660;2022-10-31T08:32:46;20.70;;;12.07;;
4359;SDS011;2193;47.980;7.660;2022-10-31T08:35:11;20.20;;;11.70;;
4359;SDS011;2193;47.980;7.660;2022-10-31T08:37:37;21.70;;;11.73;;
4359;SDS011;2193;47.980;7.660;2022-10-31T08:40:02;21.80;;;11.43;;
4359;SDS011;2193;47.980;7.660;2022-10-31T08:42:27;25.83;;;11.53;;
4359;SDS011;2193;47.980;7.660;2022-10-31T08:44:53;27.63;;;11.77;;
4359;SDS011;2193;47.980;7.660;2022-10-31T08:47:18;31.03;;;12.83;;
4359;SDS011;2193;47.980;7.660;2022-10-31T08:49:43;16.50;;;10.93;;
4359;SDS011;2193;47.980;7.660;2022-10-31T08:52:08;21.73;;;11.30;;
4359;SDS011;2193;47.980;7.660;2022-10-31T08:54:33;27.07;;;12.20;;
4359;SDS011;2193;47.980;7.660;2022-10-31T08:56:59;19.00;;;11.70;;
4359;SDS011;2193;47.980;7.660;2022-10-31T08:59:24;19.57;;;9.77;;
4359;SDS011;2193;47.980;7.660;2022-10-31T09:01:49;17.43;;;10.80;;
4359;SDS011;2193;47.980;7.660;2022-10-31T09:04:14;22.87;;;11.00;;
4359;SDS011;2193;47.980;7.660;2022-10-31T09:06:39;23.30;;;10.37;;
4359;SDS011;2193;47.980;7.660;2022-10-31T09:09:05;19.37;;;11.23;;
4359;SDS011;2193;47.980;7.660;2022-10-31T09:11:30;22.67;;;11.93;;
4359;SDS011;2193;47.980;7.660;2022-10-31T09:13:56;16.30;;;10.90;;
4359;SDS011;2193;47.980;7.660;2022-10-31T09:16:21;21.03;;;10.90;;
4359;SDS011;2193;47.980;7.660;2022-10-31T09:18:46;17.07;;;11.00;;
4359;SDS011;2193;47.980;7.660;2022-10-31T09:21:11;24.03;;;12.53;;
4359;SDS011;2193;47.980;7.660;2022-10-31T09:23:36;24.17;;;12.43;;
4359;SDS011;2193;47.980;7.660;2022-10-31T09:26:01;27.13;;;11.37;;
4359;SDS011;2193;47.980;7.660;2022-10-31T09:28:27;22.73;;;12.43;;
4359;SDS011;2193;47.980;7.660;2022-10-31T09:30:53;27.90;;;12.83;;
4359;SDS011;2193;47.980;7.660;2022-10-31T09:33:18;24.73;;;11.67;;
4359;SDS011;2193;47.980;7.660;2022-10-31T09:35:44;24.03;;;12.53;;
4359;SDS011;2193;47.980;7.660;2022-10-31T09:38:16;22.97;;;12.00;;
4359;SDS011;2193;47.980;7.660;2022-10-31T09:40:43;32.07;;;11.93;;
4359;SDS011;2193;47.980;7.660;2022-10-31T09:50:50;25.00;;;12.30;;
4359;SDS011;2193;47.980;7.660;2022-10-31T09:53:28;30.30;;;11.90;;
4359;SDS011;2193;47.980;7.660;2022-10-31T09:55:55;22.30;;;10.93;;
4359;SDS011;2193;47.980;7.660;2022-10-31T09:58:22;32.00;;;12.17;;
4359;SDS011;2193;47.980;7.660;2022-10-31T10:00:47;22.27;;;10.67;;
4359;SDS011;2193;47.980;7.660;2022-10-31T10:05:54;29.27;;;11.50;;
4359;SDS011;2193;47.980;7.660;2022-10-31T10:08:25;22.17;;;10.70;;
4359;SDS011;2193;47.980;7.660;2022-10-31T10:13:34;26.20;;;10.87;;
4359;SDS011;2193;47.980;7.660;2022-10-31T10:21:29;19.97;;;11.53;;
4359;SDS011;2193;47.980;7.660;2022-10-31T10:26:22;20.90;;;11.23;;
4359;SDS011;2193;47.980;7.660;2022-10-31T10:28:49;21.80;;;10.20;;
4359;SDS011;2193;47.980;7.660;2022-10-31T10:31:18;17.33;;;10.90;;
4359;SDS011;2193;47.980;7.660;2022-10-31T10:36:27;20.50;;;11.30;;
4359;SDS011;2193;47.980;7.660;2022-10-31T10:38:57;20.07;;;11.10;;
4359;SDS011;2193;47.980;7.660;2022-10-31T10:41:23;17.40;;;11.90;;
4359;SDS011;2193;47.980;7.660;2022-10-31T10:43:49;25.57;;;11.60;;
4359;SDS011;2193;47.980;7.660;2022-10-31T10:57:04;21.83;;;11.30;;
4359;SDS011;2193;47.980;7.660;2022-10-31T10:59:31;29.57;;;12.00;;
4359;SDS011;2193;47.980;7.660;2022-10-31T11:01:56;21.97;;;10.43;;
4359;SDS011;2193;47.980;7.660;2022-10-31T11:04:25;19.10;;;11.10;;
4359;SDS011;2193;47.980;7.660;2022-10-31T11:07:07;20.07;;;10.40;;
4359;SDS011;2193;47.980;7.660;2022-10-31T11:09:32;21.20;;;10.30;;
4359;SDS011;2193;47.980;7.660;2022-10-31T11:11:58;21.27;;;10.90;;
4359;SDS011;2193;47.980;7.660;2022-10-31T11:14:24;16.10;;;10.50;;
4359;SDS011;2193;47.980;7.660;2022-10-31T11:16:55;18.30;;;9.80;;
4359;SDS011;2193;47.980;7.660;2022-10-31T11:19:32;16.70;;;9.37;;
4359;SDS011;2193;47.980;7.660;2022-10-31T11:22:05;18.33;;;9.33;;
4359;SDS011;2193;47.980;7.660;2022-10-31T11:24:35;13.70;;;8.80;;
4359;SDS011;2193;47.980;7.660;2022-10-31T11:27:13;15.13;;;8.70;;
4359;SDS011;2193;47.980;7.660;2022-10-31T11:29:38;20.13;;;9.10;;
4359;SDS011;2193;47.980;7.660;2022-10-31T11:32:04;14.50;;;9.07;;
4359;SDS011;2193;47.980;7.660;2022-10-31T11:34:32;19.87;;;10.87;;
4359;SDS011;2193;47.980;7.660;2022-10-31T11:37:04;20.83;;;9.60;;
4359;SDS011;2193;47.980;7.660;2022-10-31T11:39:34;14.10;;;8.90;;
4359;SDS011;2193;47.980;7.660;2022-10-31T11:42:04;17.90;;;7.93;;
4359;SDS011;2193;47.980;7.660;2022-10-31T11:44:29;15.67;;;8.57;;
4359;SDS011;2193;47.980;7.660;2022-10-31T11:47:04;17.73;;;7.73;;
4359;SDS011;2193;47.980;7.660;2022-10-31T11:49:31;19.33;;;7.63;;
4359;SDS011;2193;47.980;7.660;2022-10-31T11:52:00;15.93;;;7.73;;
4359;SDS011;2193;47.980;7.660;2022-10-31T11:54:27;20.47;;;8.27;;
4359;SDS011;2193;47.980;7.660;2022-10-31T11:56:53;13.50;;;7.70;;
4359;SDS011;2193;47.980;7.660;2022-10-31T11:59:26;16.27;;;7.57;;
4359;SDS011;2193;47.980;7.660;2022-10-31T12:01:52;17.90;;;8.37;;
4359;SDS011;2193;47.980;7.660;2022-10-31T12:04:18;14.20;;;6.77;;
4359;SDS011;2193;47.980;7.660;2022-10-31T12:06:43;15.63;;;7.53;;
4359;SDS011;2193;47.980;7.660;2022-10-31T12:09:22;17.30;;;7.20;;
4359;SDS011;2193;47.980;7.660;2022-10-31T12:11:54;25.40;;;8.23;;
4359;SDS011;2193;47.980;7.660;2022-10-31T12:22:22;11.07;;;6.30;;
4359;SDS011;2193;47.980;7.660;2022-10-31T12:25:51;15.07;;;7.50;;
4359;SDS011;2193;47.980;7.660;2022-10-31T12:28:03;22.40;;;7.50;;
4359;SDS011;2193;47.980;7.660;2022-10-31T12:33:25;15.17;;;6.93;;
4359;SDS011;2193;47.980;7.660;2022-10-31T12:36:11;15.37;;;7.10;;
4359;SDS011;2193;47.980;7.660;2022-10-31T12:43:55;12.60;;;6.20;;
4359;SDS011;2193;47.980;7.660;2022-10-31T12:54:03;16.37;;;7.30;;
4359;SDS011;2193;47.980;7.660;2022-10-31T12:59:30;15.03;;;7.70;;
4359;SDS011;2193;47.980;7.660;2022-10-31T13:07:19;23.17;;;7.40;;
4359;SDS011;2193;47.980;7.660;2022-10-31T13:09:50;20.43;;;7.53;;
4359;SDS011;2193;47.980;7.660;2022-10-31T13:12:18;15.90;;;7.10;;
4359;SDS011;2193;47.980;7.660;2022-10-31T13:14:52;20.10;;;7.57;;
4359;SDS011;2193;47.980;7.660;2022-10-31T13:17:53;14.03;;;7.50;;
4359;SDS011;2193;47.980;7.660;2022-10-31T13:22:45;17.40;;;7.83;;
4359;SDS011;2193;47.980;7.660;2022-10-31T13:25:14;23.53;;;7.90;;
4359;SDS011;2193;47.980;7.660;2022-10-31T13:32:44;15.83;;;7.60;;
4359;SDS011;2193;47.980;7.660;2022-10-31T13:35:16;18.57;;;7.50;;
4359;SDS011;2193;47.980;7.660;2022-10-31T13:37:45;17.93;;;7.10;;
4359;SDS011;2193;47.980;7.660;2022-10-31T13:40:15;18.37;;;7.43;;
4359;SDS011;2193;47.980;7.660;2022-10-31T13:43:06;15.90;;;7.87;;
4359;SDS011;2193;47.980;7.660;2022-10-31T13:45:32;18.33;;;7.40;;
4359;SDS011;2193;47.980;7.660;2022-10-31T13:50:32;20.57;;;8.23;;
4359;SDS011;2193;47.980;7.660;2022-10-31T13:55:42;15.43;;;7.70;;
4359;SDS011;2193;47.980;7.660;2022-10-31T14:03:33;13.50;;;7.50;;
4359;SDS011;2193;47.980;7.660;2022-10-31T14:05:59;17.40;;;8.00;;
4359;SDS011;2193;47.980;7.660;2022-10-31T14:08:24;20.73;;;7.43;;
4359;SDS011;2193;47.980;7.660;2022-10-31T14:10:50;14.83;;;7.47;;
4359;SDS011;2193;47.980;7.660;2022-10-31T14:13:36;15.47;;;8.07;;
4359;SDS011;2193;47.980;7.660;2022-10-31T14:16:06;15.60;;;7.03;;
4359;SDS011;2193;47.980;7.660;2022-10-31T14:18:33;11.43;;;7.60;;
4359;SDS011;2193;47.980;7.660;2022-10-31T14:20:59;12.80;;;7.07;;
4359;SDS011;2193;47.980;7.660;2022-10-31T14:25:53;16.53;;;7.30;;
4359;SDS011;2193;47.980;7.660;2022-10-31T14:28:19;13.43;;;6.97;;
4359;SDS011;2193;47.980;7.660;2022-10-31T14:30:55;15.60;;;7.57;;
4359;SDS011;2193;47.980;7.660;2022-10-31T14:33:22;17.17;;;8.60;;
4359;SDS011;2193;47.980;7.660;2022-10-31T14:38:40;21.70;;;8.40;;
4359;SDS011;2193;47.980;7.660;2022-10-31T14:43:39;16.80;;;8.23;;
4359;SDS011;2193;47.980;7.660;2022-10-31T14:51:22;17.67;;;8.30;;
4359;SDS011;2193;47.980;7.660;2022-10-31T14:53:48;14.27;;;8.03;;
4359;SDS011;2193;47.980;7.660;2022-10-31T14:56:17;18.43;;;7.87;;
4359;SDS011;2193;47.980;7.660;2022-10-31T14:58:44;22.67;;;8.83;;
4359;SDS011;2193;47.980;7.660;2022-10-31T15:01:19;18.20;;;9.23;;
4359;SDS011;2193;47.980;7.660;2022-10-31T15:03:46;22.07;;;10.30;;
4359;SDS011;2193;47.980;7.660;2022-10-31T15:06:14;24.13;;;10.83;;
4359;SDS011;2193;47.980;7.660;2022-10-31T15:08:40;18.40;;;10.87;;
4359;SDS011;2193;47.980;7.660;2022-10-31T15:11:09;25.00;;;10.60;;
4359;SDS011;2193;47.980;7.660;2022-10-31T15:13:35;23.00;;;11.70;;
4359;SDS011;2193;47.980;7.660;2022-10-31T15:16:07;19.17;;;11.50;;
4359;SDS011;2193;47.980;7.660;2022-10-31T15:18:34;23.83;;;11.37;;
4359;SDS011;2193;47.980;7.660;2022-10-31T15:20:59;29.30;;;11.87;;
4359;SDS011;2193;47.980;7.660;2022-10-31T15:23:28;23.00;;;10.70;;
4359;SDS011;2193;47.980;7.660;2022-10-31T15:26:03;22.57;;;11.50;;
4359;SDS011;2193;47.980;7.660;2022-10-31T15:28:29;18.13;;;8.70;;
4359;SDS011;2193;47.980;7.660;2022-10-31T15:30:56;15.37;;;9.03;;
4359;SDS011;2193;47.980;7.660;2022-10-31T15:33:24;18.87;;;8.10;;
4359;SDS011;2193;47.980;7.660;2022-10-31T15:35:59;19.10;;;9.20;;
4359;SDS011;2193;47.980;7.660;2022-10-31T15:38:25;15.03;;;8.50;;
4359;SDS011;2193;47.980;7.660;2022-10-31T15:40:52;25.93;;;10.13;;
4359;SDS011;2193;47.980;7.660;2022-10-31T15:43:18;22.70;;;9.37;;
4359;SDS011;2193;47.980;7.660;2022-10-31T15:45:43;17.93;;;9.60;;
4359;SDS011;2193;47.980;7.660;2022-10-31T15:48:26;23.23;;;10.13;;
4359;SDS011;2193;47.980;7.660;2022-10-31T15:50:52;18.80;;;9.20;;
4359;SDS011;2193;47.980;7.660;2022-10-31T15:53:22;19.03;;;9.33;;
4359;SDS011;2193;47.980;7.660;2022-10-31T15:55:56;18.10;;;9.60;;
4359;SDS011;2193;47.980;7.660;2022-10-31T15:58:22;21.90;;;8.97;;
4359;SDS011;2193;47.980;7.660;2022-10-31T16:03:24;18.87;;;9.30;;
4359;SDS011;2193;47.980;7.660;2022-10-31T16:05:51;21.73;;;10.27;;
4359;SDS011;2193;47.980;7.660;2022-10-31T16:10:49;25.87;;;9.47;;
4359;SDS011;2193;47.980;7.660;2022-10-31T16:13:14;20.83;;;9.97;;
4359;SDS011;2193;47.980;7.660;2022-10-31T16:15:45;20.87;;;10.50;;
4359;SDS011;2193;47.980;7.660;2022-10-31T16:18:12;19.43;;;11.00;;
4359;SDS011;2193;47.980;7.660;2022-10-31T16:20:37;20.43;;;10.60;;
4359;SDS011;2193;47.980;7.660;2022-10-31T16:23:02;19.97;;;10.93;;
4359;SDS011;2193;47.980;7.660;2022-10-31T16:25:34;25.50;;;14.30;;
4359;SDS011;2193;47.980;7.660;2022-10-31T16:28:03;29.73;;;14.50;;
4359;SDS011;2193;47.980;7.660;2022-10-31T16:30:36;25.70;;;13.80;;
4359;SDS011;2193;47.980;7.660;2022-10-31T16:33:03;28.33;;;14.43;;
4359;SDS011;2193;47.980;7.660;2022-10-31T16:35:35;27.70;;;15.40;;
4359;SDS011;2193;47.980;7.660;2022-10-31T16:38:01;69.70;;;28.37;;
4359;SDS011;2193;47.980;7.660;2022-10-31T16:40:26;51.20;;;19.60;;
4359;SDS011;2193;47.980;7.660;2022-10-31T16:42:51;32.87;;;14.87;;
4359;SDS011;2193;47.980;7.660;2022-10-31T16:45:21;25.10;;;13.30;;
4359;SDS011;2193;47.980;7.660;2022-10-31T16:47:46;29.80;;;13.50;;
4359;SDS011;2193;47.980;7.660;2022-10-31T16:50:12;23.30;;;12.20;;
4359;SDS011;2193;47.980;7.660;2022-10-31T16:52:38;32.70;;;12.70;;
4359;SDS011;2193;47.980;7.660;2022-10-31T16:55:03;32.93;;;14.93;;
4359;SDS011;2193;47.980;7.660;2022-10-31T16:57:29;35.20;;;18.17;;
4359;SDS011;2193;47.980;7.660;2022-10-31T16:59:56;32.47;;;19.30;;
4359;SDS011;2193;47.980;7.660;2022-10-31T17:02:21;27.80;;;16.17;;
4359;SDS011;2193;47.980;7.660;2022-10-31T17:04:46;21.67;;;11.90;;
4359;SDS011;2193;47.980;7.660;2022-10-31T17:07:12;28.87;;;14.20;;
4359;SDS011;2193;47.980;7.660;2022-10-31T17:09:38;27.77;;;16.00;;
4359;SDS011;2193;47.980;7.660;2022-10-31T17:12:03;34.13;;;18.90;;
4359;SDS011;2193;47.980;7.660;2022-10-31T17:14:29;34.63;;;19.17;;